Flight Track Log - Related Links

Times and Time Zones

All times are in EST time to prevent confusion due to time zone crossing. See the OPT322 flight status page for this flight to view local times or setup timezone preferences in your user account.

Time Position Orientation Groundspeed Altitude Reporting Facility
EST Latitude Longitude Course Direction KTS MPH feet Rate Location/Type
Mon 08:10:04 PM 38.5228 -122.8167 139° Southeast 147 169 1,500  Level Oakland Center
Mon 08:11:05 PM 38.5222 -122.7650 91° East 222 255 5,800 4,131 Climbing Oakland Center
Mon 08:12:06 PM 38.4833 -122.6983 127° Southeast 266 306 9,900 4,033 Climbing Oakland Center
Mon 08:13:07 PM 38.5006 -122.5986 78° East 286 329 14,000 3,344 Climbing Oakland Center
Mon 08:14:00 PM 38.5638 -122.3424 96° East  Level Estimated
Mon 08:14:08 PM 38.5172 -122.4886 79° East 309 356 16,700  Level Oakland Center
Mon 08:15:00 PM 38.5172 -122.2901 139° Southeast  Level FlightAware Approximate
Mon 08:15:10 PM 38.5333 -122.3739 80° East 325 374 16,900  Level Oakland Center
Mon 08:16:11 PM 38.5492 -122.2642 80° East 316 364 16,700 -836 Descending Oakland Center
Mon 08:17:12 PM 38.5647 -122.1531 80° East 317 365 15,200 -1,623 Descending Oakland Center
Mon 08:18:13 PM 38.5847 -122.0108 80° East 337 388 13,400 -1,623 Descending Oakland Center
Mon 08:19:14 PM 38.6014 -121.8894 80° East 345 397 11,900 -1,328 Descending Oakland Center
Mon 08:20:15 PM 38.6158 -121.7842 80° East 329 379 10,700 -1,426 Descending Oakland Center
Mon 08:21:16 PM 38.6300 -121.6781 80° East 289 333 9,000 -1,574 Descending Oakland Center
Mon 08:22:17 PM 38.6425 -121.5881 80° East 278 320 7,500 -1,765 Descending Oakland Center
Mon 08:23:15 PM 38.6667 -121.5000 71° East 247 284 5,500 -2,288 Descending Northern Cal TRACON
Mon 08:24:15 PM 38.7167 -121.5000 360° North 200 230 3,000 -1,650 Descending Northern Cal TRACON
Mon 08:25:15 PM 38.7500 -121.4667 38° Northeast 147 169 2,200 -798 Descending Northern Cal TRACON
Mon 08:27:23 PM 38.6983 -121.4000 135° Southeast 125 144 500 -635 Descending Oakland Center
Mon 08:28:24 PM 38.6667 -121.3989 178° South 125 144 200 -295 Descending Oakland Center

Login

Don't have an account? Register now (free) for customized features, flight alerts, and more!